sensor_id;sensor_type;location;lat;lon;timestamp;P1;durP1;ratioP1;P2;durP2;ratioP2
35897;SDS011;21997;47.118;15.346;2023-03-04T00:02:11;12.50;;;8.10;;
35897;SDS011;21997;47.118;15.346;2023-03-04T00:04:37;11.10;;;7.43;;
35897;SDS011;21997;47.118;15.346;2023-03-04T00:07:02;12.40;;;7.83;;
35897;SDS011;21997;47.118;15.346;2023-03-04T00:09:27;12.17;;;7.67;;
35897;SDS011;21997;47.118;15.346;2023-03-04T00:11:53;11.37;;;6.90;;
35897;SDS011;21997;47.118;15.346;2023-03-04T00:14:18;12.83;;;6.93;;
35897;SDS011;21997;47.118;15.346;2023-03-04T00:16:44;12.90;;;8.17;;
35897;SDS011;21997;47.118;15.346;2023-03-04T00:19:09;12.30;;;7.10;;
35897;SDS011;21997;47.118;15.346;2023-03-04T00:21:34;10.47;;;7.10;;
35897;SDS011;21997;47.118;15.346;2023-03-04T00:24:00;12.47;;;8.37;;
35897;SDS011;21997;47.118;15.346;2023-03-04T00:26:25;13.00;;;7.90;;
35897;SDS011;21997;47.118;15.346;2023-03-04T00:28:51;10.77;;;7.57;;
35897;SDS011;21997;47.118;15.346;2023-03-04T00:31:16;12.40;;;7.87;;
35897;SDS011;21997;47.118;15.346;2023-03-04T00:33:42;14.87;;;7.60;;
35897;SDS011;21997;47.118;15.346;2023-03-04T00:36:10;15.20;;;7.17;;
35897;SDS011;21997;47.118;15.346;2023-03-04T00:38:36;9.60;;;7.47;;
35897;SDS011;21997;47.118;15.346;2023-03-04T00:41:01;10.07;;;7.67;;
35897;SDS011;21997;47.118;15.346;2023-03-04T00:43:27;11.40;;;7.70;;
35897;SDS011;21997;47.118;15.346;2023-03-04T00:45:52;12.13;;;8.37;;
35897;SDS011;21997;47.118;15.346;2023-03-04T00:48:18;13.03;;;7.83;;
35897;SDS011;21997;47.118;15.346;2023-03-04T00:50:43;12.27;;;8.03;;
35897;SDS011;21997;47.118;15.346;2023-03-04T00:53:09;11.97;;;7.90;;
35897;SDS011;21997;47.118;15.346;2023-03-04T00:55:35;11.33;;;7.43;;
35897;SDS011;21997;47.118;15.346;2023-03-04T00:58:00;15.03;;;7.53;;
35897;SDS011;21997;47.118;15.346;2023-03-04T01:00:26;10.33;;;6.93;;
35897;SDS011;21997;47.118;15.346;2023-03-04T01:02:51;13.13;;;7.50;;
35897;SDS011;21997;47.118;15.346;2023-03-04T01:05:17;10.23;;;7.17;;
35897;SDS011;21997;47.118;15.346;2023-03-04T01:07:42;10.37;;;7.83;;
35897;SDS011;21997;47.118;15.346;2023-03-04T01:10:09;11.90;;;7.47;;
35897;SDS011;21997;47.118;15.346;2023-03-04T01:12:35;12.70;;;6.93;;
35897;SDS011;21997;47.118;15.346;2023-03-04T01:15:01;11.57;;;8.00;;
35897;SDS011;21997;47.118;15.346;2023-03-04T01:17:27;11.77;;;7.63;;
35897;SDS011;21997;47.118;15.346;2023-03-04T01:19:52;12.60;;;7.60;;
35897;SDS011;21997;47.118;15.346;2023-03-04T01:22:17;10.20;;;6.70;;
35897;SDS011;21997;47.118;15.346;2023-03-04T01:24:43;10.63;;;7.07;;
35897;SDS011;21997;47.118;15.346;2023-03-04T01:27:09;9.00;;;6.93;;
35897;SDS011;21997;47.118;15.346;2023-03-04T01:29:35;8.00;;;6.10;;
35897;SDS011;21997;47.118;15.346;2023-03-04T01:32:00;10.17;;;6.33;;
35897;SDS011;21997;47.118;15.346;2023-03-04T01:34:25;9.43;;;6.83;;
35897;SDS011;21997;47.118;15.346;2023-03-04T01:36:51;12.23;;;7.37;;
35897;SDS011;21997;47.118;15.346;2023-03-04T01:39:16;10.17;;;6.23;;
35897;SDS011;21997;47.118;15.346;2023-03-04T01:41:42;11.73;;;7.40;;
35897;SDS011;21997;47.118;15.346;2023-03-04T01:44:08;13.23;;;8.00;;
35897;SDS011;21997;47.118;15.346;2023-03-04T01:46:34;11.90;;;7.33;;
35897;SDS011;21997;47.118;15.346;2023-03-04T01:48:59;10.73;;;7.23;;
35897;SDS011;21997;47.118;15.346;2023-03-04T01:51:25;11.67;;;6.53;;
35897;SDS011;21997;47.118;15.346;2023-03-04T01:53:50;9.27;;;6.50;;
35897;SDS011;21997;47.118;15.346;2023-03-04T01:56:24;11.43;;;7.60;;
35897;SDS011;21997;47.118;15.346;2023-03-04T01:59:06;8.70;;;6.57;;
35897;SDS011;21997;47.118;15.346;2023-03-04T02:01:33;9.57;;;6.33;;
35897;SDS011;21997;47.118;15.346;2023-03-04T02:03:59;10.90;;;7.23;;
35897;SDS011;21997;47.118;15.346;2023-03-04T02:06:24;10.73;;;6.67;;
35897;SDS011;21997;47.118;15.346;2023-03-04T02:08:50;11.97;;;6.93;;
35897;SDS011;21997;47.118;15.346;2023-03-04T02:11:15;9.73;;;5.27;;
35897;SDS011;21997;47.118;15.346;2023-03-04T02:13:41;9.97;;;6.20;;
35897;SDS011;21997;47.118;15.346;2023-03-04T02:16:06;8.27;;;5.80;;
35897;SDS011;21997;47.118;15.346;2023-03-04T02:18:31;10.20;;;5.97;;
35897;SDS011;21997;47.118;15.346;2023-03-04T02:23:37;11.53;;;6.60;;
35897;SDS011;21997;47.118;15.346;2023-03-04T02:26:22;7.33;;;5.67;;
35897;SDS011;21997;47.118;15.346;2023-03-04T02:28:49;11.37;;;6.40;;
35897;SDS011;21997;47.118;15.346;2023-03-04T02:31:26;14.60;;;6.13;;
35897;SDS011;21997;47.118;15.346;2023-03-04T02:33:53;9.77;;;6.23;;
35897;SDS011;21997;47.118;15.346;2023-03-04T02:36:21;9.43;;;6.40;;
35897;SDS011;21997;47.118;15.346;2023-03-04T02:38:47;10.73;;;6.23;;
35897;SDS011;21997;47.118;15.346;2023-03-04T02:41:15;10.87;;;6.20;;
35897;SDS011;21997;47.118;15.346;2023-03-04T02:43:43;13.83;;;7.67;;
35897;SDS011;21997;47.118;15.346;2023-03-04T02:46:10;9.60;;;6.40;;
35897;SDS011;21997;47.118;15.346;2023-03-04T02:48:36;10.70;;;7.30;;
35897;SDS011;21997;47.118;15.346;2023-03-04T02:51:02;12.00;;;6.90;;
35897;SDS011;21997;47.118;15.346;2023-03-04T02:53:27;10.77;;;6.57;;
35897;SDS011;21997;47.118;15.346;2023-03-04T02:55:52;9.07;;;6.00;;
35897;SDS011;21997;47.118;15.346;2023-03-04T02:58:18;8.13;;;6.27;;
35897;SDS011;21997;47.118;15.346;2023-03-04T03:00:43;9.93;;;6.43;;
35897;SDS011;21997;47.118;15.346;2023-03-04T03:03:09;12.07;;;6.47;;
35897;SDS011;21997;47.118;15.346;2023-03-04T03:05:35;10.00;;;6.47;;
35897;SDS011;21997;47.118;15.346;2023-03-04T03:08:01;11.63;;;6.43;;
35897;SDS011;21997;47.118;15.346;2023-03-04T03:10:27;9.47;;;6.73;;
35897;SDS011;21997;47.118;15.346;2023-03-04T03:12:53;10.17;;;6.17;;
35897;SDS011;21997;47.118;15.346;2023-03-04T03:15:18;11.77;;;6.13;;
35897;SDS011;21997;47.118;15.346;2023-03-04T03:17:44;9.10;;;5.57;;
35897;SDS011;21997;47.118;15.346;2023-03-04T03:20:10;7.57;;;5.70;;
35897;SDS011;21997;47.118;15.346;2023-03-04T03:22:36;8.47;;;6.00;;
35897;SDS011;21997;47.118;15.346;2023-03-04T03:25:02;11.37;;;5.87;;
35897;SDS011;21997;47.118;15.346;2023-03-04T03:27:28;10.40;;;6.30;;
35897;SDS011;21997;47.118;15.346;2023-03-04T03:29:53;12.70;;;6.00;;
35897;SDS011;21997;47.118;15.346;2023-03-04T03:32:19;8.13;;;5.63;;
35897;SDS011;21997;47.118;15.346;2023-03-04T03:34:44;11.43;;;6.47;;
35897;SDS011;21997;47.118;15.346;2023-03-04T03:37:10;8.97;;;5.73;;
35897;SDS011;21997;47.118;15.346;2023-03-04T03:39:35;10.43;;;6.60;;
35897;SDS011;21997;47.118;15.346;2023-03-04T03:42:00;10.53;;;6.77;;
35897;SDS011;21997;47.118;15.346;2023-03-04T03:44:26;9.23;;;5.43;;
35897;SDS011;21997;47.118;15.346;2023-03-04T03:46:51;9.80;;;6.00;;
35897;SDS011;21997;47.118;15.346;2023-03-04T03:49:17;8.70;;;5.93;;
35897;SDS011;21997;47.118;15.346;2023-03-04T03:51:42;7.80;;;5.20;;
35897;SDS011;21997;47.118;15.346;2023-03-04T03:54:08;14.33;;;7.10;;
35897;SDS011;21997;47.118;15.346;2023-03-04T03:56:34;9.03;;;5.93;;
35897;SDS011;21997;47.118;15.346;2023-03-04T03:58:59;10.13;;;5.80;;
35897;SDS011;21997;47.118;15.346;2023-03-04T04:01:25;11.17;;;6.40;;
35897;SDS011;21997;47.118;15.346;2023-03-04T04:03:50;10.57;;;5.83;;
35897;SDS011;21997;47.118;15.346;2023-03-04T04:06:16;8.73;;;5.90;;
35897;SDS011;21997;47.118;15.346;2023-03-04T04:08:41;7.20;;;5.67;;
35897;SDS011;21997;47.118;15.346;2023-03-04T04:11:08;7.73;;;6.03;;
35897;SDS011;21997;47.118;15.346;2023-03-04T04:13:34;11.33;;;6.00;;
35897;SDS011;21997;47.118;15.346;2023-03-04T04:16:00;9.97;;;6.00;;
35897;SDS011;21997;47.118;15.346;2023-03-04T04:18:25;17.10;;;6.63;;
35897;SDS011;21997;47.118;15.346;2023-03-04T04:20:51;10.00;;;6.33;;
35897;SDS011;21997;47.118;15.346;2023-03-04T04:23:17;12.23;;;7.13;;
35897;SDS011;21997;47.118;15.346;2023-03-04T04:25:42;9.77;;;5.80;;
35897;SDS011;21997;47.118;15.346;2023-03-04T04:28:07;7.23;;;5.90;;
35897;SDS011;21997;47.118;15.346;2023-03-04T04:30:33;10.57;;;6.40;;
35897;SDS011;21997;47.118;15.346;2023-03-04T04:32:59;10.30;;;6.13;;
35897;SDS011;21997;47.118;15.346;2023-03-04T04:35:26;14.03;;;6.47;;
35897;SDS011;21997;47.118;15.346;2023-03-04T04:37:52;11.90;;;5.73;;
35897;SDS011;21997;47.118;15.346;2023-03-04T04:40:17;10.30;;;6.20;;
35897;SDS011;21997;47.118;15.346;2023-03-04T04:42:43;10.97;;;6.47;;
35897;SDS011;21997;47.118;15.346;2023-03-04T04:45:08;8.30;;;5.97;;
35897;SDS011;21997;47.118;15.346;2023-03-04T04:47:34;11.10;;;6.40;;
35897;SDS011;21997;47.118;15.346;2023-03-04T04:49:59;8.77;;;5.37;;
35897;SDS011;21997;47.118;15.346;2023-03-04T04:52:25;7.70;;;5.73;;
35897;SDS011;21997;47.118;15.346;2023-03-04T04:54:50;11.37;;;6.07;;
35897;SDS011;21997;47.118;15.346;2023-03-04T04:57:15;10.70;;;6.03;;
35897;SDS011;21997;47.118;15.346;2023-03-04T04:59:41;12.23;;;6.20;;
35897;SDS011;21997;47.118;15.346;2023-03-04T05:02:06;12.93;;;6.33;;
35897;SDS011;21997;47.118;15.346;2023-03-04T05:04:31;10.97;;;6.53;;
35897;SDS011;21997;47.118;15.346;2023-03-04T05:06:57;14.90;;;7.17;;
35897;SDS011;21997;47.118;15.346;2023-03-04T05:09:22;12.17;;;6.50;;
35897;SDS011;21997;47.118;15.346;2023-03-04T05:11:48;11.20;;;6.50;;
35897;SDS011;21997;47.118;15.346;2023-03-04T05:14:13;12.03;;;6.37;;
35897;SDS011;21997;47.118;15.346;2023-03-04T05:16:39;9.03;;;6.50;;
35897;SDS011;21997;47.118;15.346;2023-03-04T05:19:04;12.70;;;6.10;;
35897;SDS011;21997;47.118;15.346;2023-03-04T05:21:30;10.43;;;6.30;;
35897;SDS011;21997;47.118;15.346;2023-03-04T05:23:55;11.37;;;6.47;;
35897;SDS011;21997;47.118;15.346;2023-03-04T05:26:21;12.13;;;6.10;;
35897;SDS011;21997;47.118;15.346;2023-03-04T05:28:46;14.43;;;6.77;;
35897;SDS011;21997;47.118;15.346;2023-03-04T05:31:11;11.37;;;6.50;;
35897;SDS011;21997;47.118;15.346;2023-03-04T05:33:37;10.13;;;6.20;;
35897;SDS011;21997;47.118;15.346;2023-03-04T05:36:03;11.40;;;6.23;;
35897;SDS011;21997;47.118;15.346;2023-03-04T05:38:29;11.67;;;6.07;;
35897;SDS011;21997;47.118;15.346;2023-03-04T05:40:56;10.10;;;6.63;;
35897;SDS011;21997;47.118;15.346;2023-03-04T05:43:23;13.27;;;8.47;;
35897;SDS011;21997;47.118;15.346;2023-03-04T05:45:48;17.00;;;8.20;;
35897;SDS011;21997;47.118;15.346;2023-03-04T05:48:14;19.73;;;10.33;;
35897;SDS011;21997;47.118;15.346;2023-03-04T05:50:39;16.87;;;10.30;;
35897;SDS011;21997;47.118;15.346;2023-03-04T05:53:05;29.70;;;16.47;;
35897;SDS011;21997;47.118;15.346;2023-03-04T05:55:30;22.17;;;12.97;;
35897;SDS011;21997;47.118;15.346;2023-03-04T05:57:55;20.47;;;12.40;;
35897;SDS011;21997;47.118;15.346;2023-03-04T06:00:21;21.63;;;12.63;;
35897;SDS011;21997;47.118;15.346;2023-03-04T06:02:47;22.80;;;12.10;;
35897;SDS011;21997;47.118;15.346;2023-03-04T06:05:13;19.67;;;11.83;;
35897;SDS011;21997;47.118;15.346;2023-03-04T06:07:39;15.73;;;10.43;;
35897;SDS011;21997;47.118;15.346;2023-03-04T06:10:07;17.40;;;9.67;;
35897;SDS011;21997;47.118;15.346;2023-03-04T06:12:33;14.13;;;9.13;;
35897;SDS011;21997;47.118;15.346;2023-03-04T06:14:59;18.43;;;9.63;;
35897;SDS011;21997;47.118;15.346;2023-03-04T06:17:25;17.13;;;9.27;;
35897;SDS011;21997;47.118;15.346;2023-03-04T06:19:50;15.17;;;8.60;;
35897;SDS011;21997;47.118;15.346;2023-03-04T06:22:16;15.77;;;10.40;;
35897;SDS011;21997;47.118;15.346;2023-03-04T06:24:41;13.97;;;9.60;;
35897;SDS011;21997;47.118;15.346;2023-03-04T06:27:06;15.57;;;10.03;;
35897;SDS011;21997;47.118;15.346;2023-03-04T06:29:34;18.87;;;10.83;;
35897;SDS011;21997;47.118;15.346;2023-03-04T06:31:59;16.13;;;9.73;;
35897;SDS011;21997;47.118;15.346;2023-03-04T06:34:24;16.53;;;8.70;;
35897;SDS011;21997;47.118;15.346;2023-03-04T06:36:50;14.63;;;10.23;;
35897;SDS011;21997;47.118;15.346;2023-03-04T06:39:15;14.23;;;8.87;;
35897;SDS011;21997;47.118;15.346;2023-03-04T06:41:41;19.13;;;9.17;;
35897;SDS011;21997;47.118;15.346;2023-03-04T06:44:07;16.63;;;9.93;;
35897;SDS011;21997;47.118;15.346;2023-03-04T06:46:33;13.93;;;9.23;;
35897;SDS011;21997;47.118;15.346;2023-03-04T06:48:59;14.70;;;9.03;;
35897;SDS011;21997;47.118;15.346;2023-03-04T06:51:24;14.03;;;8.50;;
35897;SDS011;21997;47.118;15.346;2023-03-04T06:53:50;14.20;;;8.77;;
35897;SDS011;21997;47.118;15.346;2023-03-04T06:56:15;12.53;;;8.40;;
35897;SDS011;21997;47.118;15.346;2023-03-04T06:58:42;11.83;;;9.00;;
35897;SDS011;21997;47.118;15.346;2023-03-04T07:01:17;15.43;;;8.97;;
35897;SDS011;21997;47.118;15.346;2023-03-04T07:03:44;17.47;;;9.80;;
35897;SDS011;21997;47.118;15.346;2023-03-04T07:06:10;14.63;;;9.53;;
35897;SDS011;21997;47.118;15.346;2023-03-04T07:08:36;17.10;;;9.47;;
35897;SDS011;21997;47.118;15.346;2023-03-04T07:11:01;11.87;;;8.13;;
35897;SDS011;21997;47.118;15.346;2023-03-04T07:13:27;11.33;;;8.27;;
35897;SDS011;21997;47.118;15.346;2023-03-04T07:15:52;14.03;;;8.37;;
35897;SDS011;21997;47.118;15.346;2023-03-04T07:18:18;11.47;;;7.77;;
35897;SDS011;21997;47.118;15.346;2023-03-04T07:20:43;13.67;;;8.97;;
35897;SDS011;21997;47.118;15.346;2023-03-04T07:23:09;13.57;;;8.70;;
35897;SDS011;21997;47.118;15.346;2023-03-04T07:25:34;16.03;;;8.23;;
35897;SDS011;21997;47.118;15.346;2023-03-04T07:28:00;11.93;;;8.23;;
35897;SDS011;21997;47.118;15.346;2023-03-04T07:30:25;10.17;;;7.63;;
35897;SDS011;21997;47.118;15.346;2023-03-04T07:32:50;12.93;;;7.27;;
35897;SDS011;21997;47.118;15.346;2023-03-04T07:35:16;14.27;;;9.37;;
35897;SDS011;21997;47.118;15.346;2023-03-04T07:37:41;14.57;;;9.20;;
35897;SDS011;21997;47.118;15.346;2023-03-04T07:40:07;13.10;;;9.93;;
35897;SDS011;21997;47.118;15.346;2023-03-04T07:42:33;13.57;;;8.40;;
35897;SDS011;21997;47.118;15.346;2023-03-04T07:44:58;10.73;;;8.00;;
35897;SDS011;21997;47.118;15.346;2023-03-04T07:47:25;12.10;;;7.40;;
35897;SDS011;21997;47.118;15.346;2023-03-04T07:49:51;12.77;;;7.60;;
35897;SDS011;21997;47.118;15.346;2023-03-04T07:52:17;14.40;;;7.87;;
35897;SDS011;21997;47.118;15.346;2023-03-04T07:54:43;11.20;;;7.80;;
35897;SDS011;21997;47.118;15.346;2023-03-04T07:57:08;10.77;;;7.23;;
35897;SDS011;21997;47.118;15.346;2023-03-04T07:59:34;7.03;;;5.77;;
35897;SDS011;21997;47.118;15.346;2023-03-04T08:01:59;10.87;;;6.43;;
35897;SDS011;21997;47.118;15.346;2023-03-04T08:04:24;11.37;;;6.73;;
35897;SDS011;21997;47.118;15.346;2023-03-04T08:06:50;9.50;;;6.57;;
35897;SDS011;21997;47.118;15.346;2023-03-04T08:09:15;8.77;;;7.37;;
35897;SDS011;21997;47.118;15.346;2023-03-04T08:11:41;8.83;;;6.57;;
35897;SDS011;21997;47.118;15.346;2023-03-04T08:14:07;9.93;;;6.50;;
35897;SDS011;21997;47.118;15.346;2023-03-04T08:16:33;9.63;;;7.47;;
35897;SDS011;21997;47.118;15.346;2023-03-04T08:18:59;15.10;;;7.33;;
35897;SDS011;21997;47.118;15.346;2023-03-04T08:21:26;8.97;;;6.57;;
35897;SDS011;21997;47.118;15.346;2023-03-04T08:23:52;10.77;;;6.90;;
35897;SDS011;21997;47.118;15.346;2023-03-04T08:26:26;10.03;;;7.00;;
35897;SDS011;21997;47.118;15.346;2023-03-04T08:28:54;9.87;;;6.40;;
35897;SDS011;21997;47.118;15.346;2023-03-04T08:31:21;11.43;;;6.80;;
35897;SDS011;21997;47.118;15.346;2023-03-04T08:33:46;11.80;;;6.47;;
35897;SDS011;21997;47.118;15.346;2023-03-04T08:36:12;10.17;;;6.23;;
35897;SDS011;21997;47.118;15.346;2023-03-04T08:38:38;8.83;;;6.07;;
35897;SDS011;21997;47.118;15.346;2023-03-04T08:41:04;10.57;;;6.80;;
35897;SDS011;21997;47.118;15.346;2023-03-04T08:43:30;11.77;;;6.97;;
35897;SDS011;21997;47.118;15.346;2023-03-04T08:45:56;9.80;;;6.77;;
35897;SDS011;21997;47.118;15.346;2023-03-04T08:48:21;15.07;;;7.43;;
35897;SDS011;21997;47.118;15.346;2023-03-04T08:50:47;12.63;;;8.37;;
35897;SDS011;21997;47.118;15.346;2023-03-04T08:53:13;12.93;;;7.70;;
35897;SDS011;21997;47.118;15.346;2023-03-04T08:55:39;12.70;;;6.90;;
35897;SDS011;21997;47.118;15.346;2023-03-04T08:58:06;7.40;;;5.07;;
35897;SDS011;21997;47.118;15.346;2023-03-04T09:00:32;5.40;;;4.50;;
35897;SDS011;21997;47.118;15.346;2023-03-04T09:02:58;10.50;;;5.30;;
35897;SDS011;21997;47.118;15.346;2023-03-04T09:05:23;9.13;;;4.97;;
35897;SDS011;21997;47.118;15.346;2023-03-04T09:07:49;9.38;;;4.78;;
35897;SDS011;21997;47.118;15.346;2023-03-04T09:10:14;11.95;;;5.10;;
35897;SDS011;21997;47.118;15.346;2023-03-04T09:12:40;8.65;;;5.22;;
35897;SDS011;21997;47.118;15.346;2023-03-04T09:15:05;6.47;;;4.88;;
35897;SDS011;21997;47.118;15.346;2023-03-04T09:17:32;8.93;;;4.60;;
35897;SDS011;21997;47.118;15.346;2023-03-04T09:19:57;8.73;;;4.85;;
35897;SDS011;21997;47.118;15.346;2023-03-04T09:22:23;13.38;;;4.93;;
35897;SDS011;21997;47.118;15.346;2023-03-04T09:24:48;8.65;;;4.28;;
35897;SDS011;21997;47.118;15.346;2023-03-04T09:27:14;9.60;;;4.95;;
35897;SDS011;21997;47.118;15.346;2023-03-04T09:29:39;7.05;;;4.10;;
35897;SDS011;21997;47.118;15.346;2023-03-04T09:32:05;9.10;;;4.03;;
35897;SDS011;21997;47.118;15.346;2023-03-04T09:34:30;10.25;;;4.55;;
35897;SDS011;21997;47.118;15.346;2023-03-04T09:36:56;9.75;;;4.05;;
35897;SDS011;21997;47.118;15.346;2023-03-04T09:39:21;6.50;;;4.00;;
35897;SDS011;21997;47.118;15.346;2023-03-04T09:41:48;7.45;;;3.67;;
35897;SDS011;21997;47.118;15.346;2023-03-04T09:44:21;6.25;;;4.30;;
35897;SDS011;21997;47.118;15.346;2023-03-04T09:46:48;8.40;;;3.53;;
35897;SDS011;21997;47.118;15.346;2023-03-04T09:49:14;6.55;;;3.97;;
35897;SDS011;21997;47.118;15.346;2023-03-04T09:51:45;6.65;;;3.70;;
35897;SDS011;21997;47.118;15.346;2023-03-04T10:05:18;7.60;;;3.85;;
35897;SDS011;21997;47.118;15.346;2023-03-04T10:07:46;8.80;;;3.65;;
35897;SDS011;21997;47.118;15.346;2023-03-04T10:10:31;7.38;;;3.33;;
35897;SDS011;21997;47.118;15.346;2023-03-04T10:12:58;6.85;;;3.75;;
35897;SDS011;21997;47.118;15.346;2023-03-04T10:17:59;9.10;;;3.58;;
35897;SDS011;21997;47.118;15.346;2023-03-04T10:20:32;7.35;;;3.85;;
35897;SDS011;21997;47.118;15.346;2023-03-04T10:23:10;8.35;;;3.35;;
35897;SDS011;21997;47.118;15.346;2023-03-04T10:25:40;8.50;;;4.88;;
35897;SDS011;21997;47.118;15.346;2023-03-04T10:30:55;9.30;;;4.05;;
35897;SDS011;21997;47.118;15.346;2023-03-04T10:33:27;7.13;;;3.50;;
35897;SDS011;21997;47.118;15.346;2023-03-04T10:36:00;5.18;;;3.15;;
35897;SDS011;21997;47.118;15.346;2023-03-04T10:38:30;4.72;;;3.42;;
35897;SDS011;21997;47.118;15.346;2023-03-04T10:40:57;6.60;;;3.53;;
35897;SDS011;21997;47.118;15.346;2023-03-04T10:43:22;7.13;;;3.10;;
35897;SDS011;21997;47.118;15.346;2023-03-04T10:45:48;6.32;;;3.42;;
35897;SDS011;21997;47.118;15.346;2023-03-04T10:48:20;5.47;;;3.00;;
35897;SDS011;21997;47.118;15.346;2023-03-04T10:50:47;5.93;;;3.35;;
35897;SDS011;21997;47.118;15.346;2023-03-04T11:02:21;7.90;;;3.28;;
35897;SDS011;21997;47.118;15.346;2023-03-04T11:05:06;6.07;;;3.00;;
35897;SDS011;21997;47.118;15.346;2023-03-04T11:07:32;7.35;;;3.40;;
35897;SDS011;21997;47.118;15.346;2023-03-04T11:10:09;6.03;;;3.42;;
35897;SDS011;21997;47.118;15.346;2023-03-04T11:12:38;3.80;;;2.90;;
35897;SDS011;21997;47.118;15.346;2023-03-04T11:15:11;6.00;;;3.10;;
35897;SDS011;21997;47.118;15.346;2023-03-04T11:17:49;7.30;;;2.97;;
35897;SDS011;21997;47.118;15.346;2023-03-04T11:20:32;6.47;;;3.13;;
35897;SDS011;21997;47.118;15.346;2023-03-04T11:23:08;5.32;;;3.08;;
35897;SDS011;21997;47.118;15.346;2023-03-04T11:26:12;5.85;;;3.15;;
35897;SDS011;21997;47.118;15.346;2023-03-04T11:31:26;7.07;;;3.63;;
35897;SDS011;21997;47.118;15.346;2023-03-04T11:36:50;5.30;;;2.47;;
35897;SDS011;21997;47.118;15.346;2023-03-04T11:39:40;4.45;;;3.20;;
35897;SDS011;21997;47.118;15.346;2023-03-04T11:44:56;7.32;;;3.88;;
35897;SDS011;21997;47.118;15.346;2023-03-04T11:47:35;6.97;;;3.65;;
35897;SDS011;21997;47.118;15.346;2023-03-04T11:53:01;6.40;;;3.10;;
35897;SDS011;21997;47.118;15.346;2023-03-04T11:55:44;4.65;;;3.05;;
35897;SDS011;21997;47.118;15.346;2023-03-04T11:58:22;4.85;;;2.88;;
35897;SDS011;21997;47.118;15.346;2023-03-04T12:01:04;5.70;;;2.53;;
35897;SDS011;21997;47.118;15.346;2023-03-04T12:09:11;3.47;;;1.52;;
35897;SDS011;21997;47.118;15.346;2023-03-04T12:14:32;5.88;;;2.45;;
35897;SDS011;21997;47.118;15.346;2023-03-04T12:28:16;6.78;;;2.00;;
35897;SDS011;21997;47.118;15.346;2023-03-04T12:44:44;5.95;;;2.67;;
35897;SDS011;21997;47.118;15.346;2023-03-04T12:47:15;4.72;;;2.00;;
35897;SDS011;21997;47.118;15.346;2023-03-04T12:52:37;7.43;;;1.88;;
35897;SDS011;21997;47.118;15.346;2023-03-04T12:55:11;6.10;;;2.60;;
35897;SDS011;21997;47.118;15.346;2023-03-04T12:57:40;3.35;;;2.20;;
35897;SDS011;21997;47.118;15.346;2023-03-04T13:00:18;6.72;;;2.60;;
35897;SDS011;21997;47.118;15.346;2023-03-04T13:05:41;8.68;;;2.38;;
35897;SDS011;21997;47.118;15.346;2023-03-04T13:08:28;5.88;;;2.60;;
35897;SDS011;21997;47.118;15.346;2023-03-04T13:11:37;4.93;;;1.80;;
35897;SDS011;21997;47.118;15.346;2023-03-04T13:16:39;6.43;;;2.33;;
35897;SDS011;21997;47.118;15.346;2023-03-04T13:25:46;6.07;;;2.08;;
35897;SDS011;21997;47.118;15.346;2023-03-04T13:43:36;3.70;;;2.25;;
35897;SDS011;21997;47.118;15.346;2023-03-04T13:51:16;6.57;;;2.17;;
35897;SDS011;21997;47.118;15.346;2023-03-04T13:53:45;6.90;;;2.00;;
35897;SDS011;21997;47.118;15.346;2023-03-04T13:56:35;7.13;;;2.13;;
35897;SDS011;21997;47.118;15.346;2023-03-04T14:04:17;4.45;;;2.17;;
35897;SDS011;21997;47.118;15.346;2023-03-04T14:07:02;4.13;;;2.45;;
35897;SDS011;21997;47.118;15.346;2023-03-04T14:12:57;7.70;;;2.00;;
35897;SDS011;21997;47.118;15.346;2023-03-04T14:15:24;4.28;;;1.85;;
35897;SDS011;21997;47.118;15.346;2023-03-04T14:17:55;5.03;;;2.53;;
35897;SDS011;21997;47.118;15.346;2023-03-04T14:22:52;2.92;;;2.40;;
35897;SDS011;21997;47.118;15.346;2023-03-04T14:27:43;7.82;;;2.67;;
35897;SDS011;21997;47.118;15.346;2023-03-04T14:30:28;3.55;;;2.03;;
35897;SDS011;21997;47.118;15.346;2023-03-04T14:32:55;4.22;;;2.83;;
35897;SDS011;21997;47.118;15.346;2023-03-04T14:35:25;6.75;;;2.03;;
35897;SDS011;21997;47.118;15.346;2023-03-04T14:40:44;5.03;;;2.10;;
35897;SDS011;21997;47.118;15.346;2023-03-04T14:43:20;6.53;;;2.47;;
35897;SDS011;21997;47.118;15.346;2023-03-04T14:45:53;5.03;;;2.10;;
35897;SDS011;21997;47.118;15.346;2023-03-04T14:48:21;6.23;;;2.13;;
35897;SDS011;21997;47.118;15.346;2023-03-04T14:50:50;5.10;;;2.10;;
35897;SDS011;21997;47.118;15.346;2023-03-04T14:53:18;4.93;;;1.90;;
35897;SDS011;21997;47.118;15.346;2023-03-04T14:55:54;3.83;;;2.47;;
35897;SDS011;21997;47.118;15.346;2023-03-04T14:58:25;5.87;;;2.00;;
35897;SDS011;21997;47.118;15.346;2023-03-04T15:01:02;6.53;;;2.37;;
35897;SDS011;21997;47.118;15.346;2023-03-04T15:03:39;5.83;;;2.10;;
35897;SDS011;21997;47.118;15.346;2023-03-04T15:06:21;7.63;;;2.03;;
35897;SDS011;21997;47.118;15.346;2023-03-04T15:08:55;7.53;;;2.20;;
35897;SDS011;21997;47.118;15.346;2023-03-04T15:11:27;6.30;;;2.30;;
35897;SDS011;21997;47.118;15.346;2023-03-04T15:13:56;6.40;;;2.87;;
35897;SDS011;21997;47.118;15.346;2023-03-04T15:16:24;7.10;;;2.57;;
35897;SDS011;21997;47.118;15.346;2023-03-04T15:23:57;3.87;;;2.20;;
35897;SDS011;21997;47.118;15.346;2023-03-04T15:26:23;3.97;;;2.20;;
35897;SDS011;21997;47.118;15.346;2023-03-04T15:28:49;5.60;;;3.10;;
35897;SDS011;21997;47.118;15.346;2023-03-04T15:31:16;6.97;;;2.30;;
35897;SDS011;21997;47.118;15.346;2023-03-04T15:33:42;4.73;;;2.40;;
35897;SDS011;21997;47.118;15.346;2023-03-04T15:36:10;3.97;;;2.17;;
35897;SDS011;21997;47.118;15.346;2023-03-04T15:38:38;5.50;;;1.80;;
35897;SDS011;21997;47.118;15.346;2023-03-04T15:41:05;7.60;;;3.03;;
35897;SDS011;21997;47.118;15.346;2023-03-04T15:43:31;16.53;;;2.53;;
35897;SDS011;21997;47.118;15.346;2023-03-04T15:45:56;7.80;;;2.10;;
35897;SDS011;21997;47.118;15.346;2023-03-04T15:48:21;4.77;;;2.37;;
35897;SDS011;21997;47.118;15.346;2023-03-04T15:50:48;6.23;;;2.00;;
35897;SDS011;21997;47.118;15.346;2023-03-04T15:53:26;5.17;;;2.20;;
35897;SDS011;21997;47.118;15.346;2023-03-04T15:55:56;3.13;;;2.00;;
35897;SDS011;21997;47.118;15.346;2023-03-04T15:58:22;4.50;;;2.00;;
35897;SDS011;21997;47.118;15.346;2023-03-04T16:00:48;6.60;;;2.40;;
35897;SDS011;21997;47.118;15.346;2023-03-04T16:03:14;2.60;;;1.73;;
35897;SDS011;21997;47.118;15.346;2023-03-04T16:05:41;5.47;;;2.20;;
35897;SDS011;21997;47.118;15.346;2023-03-04T16:08:08;8.13;;;2.93;;
35897;SDS011;21997;47.118;15.346;2023-03-04T16:10:35;2.47;;;1.97;;
35897;SDS011;21997;47.118;15.346;2023-03-04T16:13:01;5.77;;;2.50;;
35897;SDS011;21997;47.118;15.346;2023-03-04T16:15:28;6.83;;;3.10;;
35897;SDS011;21997;47.118;15.346;2023-03-04T16:17:54;7.53;;;3.67;;
35897;SDS011;21997;47.118;15.346;2023-03-04T16:20:26;7.23;;;2.43;;
35897;SDS011;21997;47.118;15.346;2023-03-04T16:22:57;7.03;;;2.60;;
35897;SDS011;21997;47.118;15.346;2023-03-04T16:25:24;2.70;;;2.20;;
35897;SDS011;21997;47.118;15.346;2023-03-04T16:27:51;2.93;;;2.10;;
35897;SDS011;21997;47.118;15.346;2023-03-04T16:30:21;9.63;;;2.43;;
35897;SDS011;21997;47.118;15.346;2023-03-04T16:32:48;4.83;;;2.00;;
35897;SDS011;21997;47.118;15.346;2023-03-04T16:35:15;4.07;;;2.47;;
35897;SDS011;21997;47.118;15.346;2023-03-04T16:37:42;5.23;;;2.43;;
35897;SDS011;21997;47.118;15.346;2023-03-04T16:40:08;5.57;;;2.53;;
35897;SDS011;21997;47.118;15.346;2023-03-04T16:42:36;4.50;;;2.90;;